sensor_id;sensor_type;location;lat;lon;timestamp;P1;durP1;ratioP1;P2;durP2;ratioP2
10825;SDS011;5466;55.898;14.094;2024-03-02T00:02:13;119.70;;;51.88;;
10825;SDS011;5466;55.898;14.094;2024-03-02T00:04:14;120.80;;;51.67;;
10825;SDS011;5466;55.898;14.094;2024-03-02T00:06:15;114.40;;;51.90;;
10825;SDS011;5466;55.898;14.094;2024-03-02T00:08:24;122.35;;;52.40;;
10825;SDS011;5466;55.898;14.094;2024-03-02T00:10:36;118.32;;;53.35;;
10825;SDS011;5466;55.898;14.094;2024-03-02T00:12:40;123.18;;;53.35;;
10825;SDS011;5466;55.898;14.094;2024-03-02T00:14:42;109.28;;;50.13;;
10825;SDS011;5466;55.898;14.094;2024-03-02T00:16:42;121.53;;;52.60;;
10825;SDS011;5466;55.898;14.094;2024-03-02T00:18:43;115.78;;;51.33;;
10825;SDS011;5466;55.898;14.094;2024-03-02T00:20:44;111.72;;;51.65;;
10825;SDS011;5466;55.898;14.094;2024-03-02T00:22:44;121.18;;;50.58;;
10825;SDS011;5466;55.898;14.094;2024-03-02T00:24:45;113.88;;;52.67;;
10825;SDS011;5466;55.898;14.094;2024-03-02T00:26:46;116.00;;;51.72;;
10825;SDS011;5466;55.898;14.094;2024-03-02T00:28:47;126.90;;;53.78;;
10825;SDS011;5466;55.898;14.094;2024-03-02T00:31:09;126.47;;;52.63;;
10825;SDS011;5466;55.898;14.094;2024-03-02T00:33:14;115.70;;;50.80;;
10825;SDS011;5466;55.898;14.094;2024-03-02T00:35:14;115.50;;;51.33;;
10825;SDS011;5466;55.898;14.094;2024-03-02T00:37:15;122.90;;;54.00;;
10825;SDS011;5466;55.898;14.094;2024-03-02T00:39:16;109.18;;;50.67;;
10825;SDS011;5466;55.898;14.094;2024-03-02T00:41:22;119.35;;;51.63;;
10825;SDS011;5466;55.898;14.094;2024-03-02T00:45:33;120.57;;;52.85;;
10825;SDS011;5466;55.898;14.094;2024-03-02T00:47:38;119.95;;;53.10;;
10825;SDS011;5466;55.898;14.094;2024-03-02T00:49:39;123.70;;;52.90;;
10825;SDS011;5466;55.898;14.094;2024-03-02T00:51:39;125.97;;;53.53;;
10825;SDS011;5466;55.898;14.094;2024-03-02T00:53:41;118.00;;;53.60;;
10825;SDS011;5466;55.898;14.094;2024-03-02T00:55:42;121.32;;;52.85;;
10825;SDS011;5466;55.898;14.094;2024-03-02T00:57:47;128.82;;;54.28;;
10825;SDS011;5466;55.898;14.094;2024-03-02T00:59:48;124.10;;;55.28;;
10825;SDS011;5466;55.898;14.094;2024-03-02T01:01:48;130.80;;;54.05;;
10825;SDS011;5466;55.898;14.094;2024-03-02T01:03:49;130.35;;;54.22;;
10825;SDS011;5466;55.898;14.094;2024-03-02T01:05:50;119.28;;;52.03;;
10825;SDS011;5466;55.898;14.094;2024-03-02T01:07:51;124.53;;;53.17;;
10825;SDS011;5466;55.898;14.094;2024-03-02T01:09:51;127.25;;;52.38;;
10825;SDS011;5466;55.898;14.094;2024-03-02T01:11:52;119.40;;;54.67;;
10825;SDS011;5466;55.898;14.094;2024-03-02T01:13:53;121.80;;;52.38;;
10825;SDS011;5466;55.898;14.094;2024-03-02T01:15:53;123.15;;;53.72;;
10825;SDS011;5466;55.898;14.094;2024-03-02T01:17:54;120.53;;;52.33;;
10825;SDS011;5466;55.898;14.094;2024-03-02T01:19:55;116.72;;;52.58;;
10825;SDS011;5466;55.898;14.094;2024-03-02T01:21:55;121.93;;;56.05;;
10825;SDS011;5466;55.898;14.094;2024-03-02T01:23:58;119.18;;;53.53;;
10825;SDS011;5466;55.898;14.094;2024-03-02T01:25:58;121.38;;;52.67;;
10825;SDS011;5466;55.898;14.094;2024-03-02T01:27:59;121.75;;;54.75;;
10825;SDS011;5466;55.898;14.094;2024-03-02T01:30:00;114.30;;;54.75;;
10825;SDS011;5466;55.898;14.094;2024-03-02T01:32:00;116.50;;;52.10;;
10825;SDS011;5466;55.898;14.094;2024-03-02T01:34:01;117.95;;;54.10;;
10825;SDS011;5466;55.898;14.094;2024-03-02T01:36:02;114.53;;;51.50;;
10825;SDS011;5466;55.898;14.094;2024-03-02T01:38:03;124.68;;;52.85;;
10825;SDS011;5466;55.898;14.094;2024-03-02T01:40:06;118.28;;;53.35;;
10825;SDS011;5466;55.898;14.094;2024-03-02T01:42:09;116.80;;;53.88;;
10825;SDS011;5466;55.898;14.094;2024-03-02T01:44:10;114.63;;;50.90;;
10825;SDS011;5466;55.898;14.094;2024-03-02T01:46:11;119.60;;;53.13;;
10825;SDS011;5466;55.898;14.094;2024-03-02T01:48:12;119.95;;;54.03;;
10825;SDS011;5466;55.898;14.094;2024-03-02T01:50:13;114.60;;;53.13;;
10825;SDS011;5466;55.898;14.094;2024-03-02T01:52:14;122.65;;;53.05;;
10825;SDS011;5466;55.898;14.094;2024-03-02T01:54:15;115.47;;;53.72;;
10825;SDS011;5466;55.898;14.094;2024-03-02T01:56:15;112.30;;;53.05;;
10825;SDS011;5466;55.898;14.094;2024-03-02T01:58:16;126.35;;;53.58;;
10825;SDS011;5466;55.898;14.094;2024-03-02T02:00:17;115.15;;;52.75;;
10825;SDS011;5466;55.898;14.094;2024-03-02T02:02:21;114.88;;;52.78;;
10825;SDS011;5466;55.898;14.094;2024-03-02T02:04:22;125.97;;;54.40;;
10825;SDS011;5466;55.898;14.094;2024-03-02T02:06:27;132.18;;;52.60;;
10825;SDS011;5466;55.898;14.094;2024-03-02T02:08:28;115.72;;;52.33;;
10825;SDS011;5466;55.898;14.094;2024-03-02T02:10:28;124.97;;;53.13;;
10825;SDS011;5466;55.898;14.094;2024-03-02T02:12:29;115.20;;;53.20;;
10825;SDS011;5466;55.898;14.094;2024-03-02T02:14:30;119.55;;;54.10;;
10825;SDS011;5466;55.898;14.094;2024-03-02T02:16:30;110.45;;;52.78;;
10825;SDS011;5466;55.898;14.094;2024-03-02T02:18:31;115.72;;;52.38;;
10825;SDS011;5466;55.898;14.094;2024-03-02T02:20:32;114.18;;;51.13;;
10825;SDS011;5466;55.898;14.094;2024-03-02T02:22:33;114.82;;;52.90;;
10825;SDS011;5466;55.898;14.094;2024-03-02T02:24:34;117.45;;;52.53;;
10825;SDS011;5466;55.898;14.094;2024-03-02T02:26:34;116.03;;;52.90;;
10825;SDS011;5466;55.898;14.094;2024-03-02T02:28:35;113.30;;;51.97;;
10825;SDS011;5466;55.898;14.094;2024-03-02T02:30:36;120.55;;;51.92;;
10825;SDS011;5466;55.898;14.094;2024-03-02T02:32:36;104.22;;;52.17;;
10825;SDS011;5466;55.898;14.094;2024-03-02T02:34:37;108.32;;;50.28;;
10825;SDS011;5466;55.898;14.094;2024-03-02T02:36:38;116.30;;;51.95;;
10825;SDS011;5466;55.898;14.094;2024-03-02T02:38:42;114.10;;;53.42;;
10825;SDS011;5466;55.898;14.094;2024-03-02T02:40:45;109.15;;;52.15;;
10825;SDS011;5466;55.898;14.094;2024-03-02T02:42:46;121.05;;;53.05;;
10825;SDS011;5466;55.898;14.094;2024-03-02T02:44:47;125.95;;;54.25;;
10825;SDS011;5466;55.898;14.094;2024-03-02T02:46:48;122.78;;;53.22;;
10825;SDS011;5466;55.898;14.094;2024-03-02T02:48:48;116.60;;;52.83;;
10825;SDS011;5466;55.898;14.094;2024-03-02T02:50:49;119.15;;;52.95;;
10825;SDS011;5466;55.898;14.094;2024-03-02T02:52:50;123.60;;;55.50;;
10825;SDS011;5466;55.898;14.094;2024-03-02T02:54:50;120.55;;;54.17;;
10825;SDS011;5466;55.898;14.094;2024-03-02T02:56:52;116.80;;;54.67;;
10825;SDS011;5466;55.898;14.094;2024-03-02T02:58:53;119.10;;;54.03;;
10825;SDS011;5466;55.898;14.094;2024-03-02T03:00:53;111.60;;;54.10;;
10825;SDS011;5466;55.898;14.094;2024-03-02T03:02:56;115.90;;;54.08;;
10825;SDS011;5466;55.898;14.094;2024-03-02T03:04:57;119.20;;;53.67;;
10825;SDS011;5466;55.898;14.094;2024-03-02T03:06:57;114.78;;;55.00;;
10825;SDS011;5466;55.898;14.094;2024-03-02T03:08:58;123.15;;;54.53;;
10825;SDS011;5466;55.898;14.094;2024-03-02T03:10:59;120.07;;;52.97;;
10825;SDS011;5466;55.898;14.094;2024-03-02T03:13:00;107.97;;;52.10;;
10825;SDS011;5466;55.898;14.094;2024-03-02T03:15:00;107.55;;;52.13;;
10825;SDS011;5466;55.898;14.094;2024-03-02T03:17:02;111.88;;;54.10;;
10825;SDS011;5466;55.898;14.094;2024-03-02T03:19:02;118.60;;;53.35;;
10825;SDS011;5466;55.898;14.094;2024-03-02T03:21:03;116.75;;;53.63;;
10825;SDS011;5466;55.898;14.094;2024-03-02T03:23:04;107.88;;;52.60;;
10825;SDS011;5466;55.898;14.094;2024-03-02T03:25:04;113.30;;;52.33;;
10825;SDS011;5466;55.898;14.094;2024-03-02T03:27:06;115.03;;;54.75;;
10825;SDS011;5466;55.898;14.094;2024-03-02T03:29:07;114.32;;;54.95;;
10825;SDS011;5466;55.898;14.094;2024-03-02T03:31:08;120.82;;;54.72;;
10825;SDS011;5466;55.898;14.094;2024-03-02T03:33:08;114.45;;;54.15;;
10825;SDS011;5466;55.898;14.094;2024-03-02T03:35:09;121.80;;;54.45;;
10825;SDS011;5466;55.898;14.094;2024-03-02T03:37:10;117.07;;;56.35;;
10825;SDS011;5466;55.898;14.094;2024-03-02T03:39:10;112.40;;;55.40;;
10825;SDS011;5466;55.898;14.094;2024-03-02T03:41:11;131.23;;;56.55;;
10825;SDS011;5466;55.898;14.094;2024-03-02T03:43:12;123.03;;;55.15;;
10825;SDS011;5466;55.898;14.094;2024-03-02T03:45:12;131.10;;;57.40;;
10825;SDS011;5466;55.898;14.094;2024-03-02T03:47:13;118.15;;;57.13;;
10825;SDS011;5466;55.898;14.094;2024-03-02T03:49:14;127.32;;;56.75;;
10825;SDS011;5466;55.898;14.094;2024-03-02T03:51:14;133.50;;;58.47;;
10825;SDS011;5466;55.898;14.094;2024-03-02T03:53:15;138.65;;;57.95;;
10825;SDS011;5466;55.898;14.094;2024-03-02T03:55:16;139.25;;;59.83;;
10825;SDS011;5466;55.898;14.094;2024-03-02T03:57:17;131.90;;;57.25;;
10825;SDS011;5466;55.898;14.094;2024-03-02T03:59:17;122.10;;;55.53;;
10825;SDS011;5466;55.898;14.094;2024-03-02T04:01:18;135.50;;;58.13;;
10825;SDS011;5466;55.898;14.094;2024-03-02T04:03:18;139.07;;;56.00;;
10825;SDS011;5466;55.898;14.094;2024-03-02T04:05:19;146.50;;;60.05;;
10825;SDS011;5466;55.898;14.094;2024-03-02T04:07:20;141.90;;;58.65;;
10825;SDS011;5466;55.898;14.094;2024-03-02T04:09:20;130.18;;;56.65;;
10825;SDS011;5466;55.898;14.094;2024-03-02T04:11:21;140.65;;;58.70;;
10825;SDS011;5466;55.898;14.094;2024-03-02T04:13:22;131.60;;;57.15;;
10825;SDS011;5466;55.898;14.094;2024-03-02T04:15:22;141.63;;;58.33;;
10825;SDS011;5466;55.898;14.094;2024-03-02T04:17:23;123.72;;;53.85;;
10825;SDS011;5466;55.898;14.094;2024-03-02T04:19:24;131.23;;;55.58;;
10825;SDS011;5466;55.898;14.094;2024-03-02T04:21:25;140.40;;;56.15;;
10825;SDS011;5466;55.898;14.094;2024-03-02T04:23:28;132.07;;;56.38;;
10825;SDS011;5466;55.898;14.094;2024-03-02T04:25:29;141.18;;;56.80;;
10825;SDS011;5466;55.898;14.094;2024-03-02T04:27:30;131.73;;;55.50;;
10825;SDS011;5466;55.898;14.094;2024-03-02T04:29:34;119.70;;;52.03;;
10825;SDS011;5466;55.898;14.094;2024-03-02T04:31:35;132.32;;;53.78;;
10825;SDS011;5466;55.898;14.094;2024-03-02T04:33:35;123.47;;;54.53;;
10825;SDS011;5466;55.898;14.094;2024-03-02T04:35:36;135.68;;;55.90;;
10825;SDS011;5466;55.898;14.094;2024-03-02T04:37:37;132.98;;;53.70;;
10825;SDS011;5466;55.898;14.094;2024-03-02T04:39:38;121.07;;;53.55;;
10825;SDS011;5466;55.898;14.094;2024-03-02T04:41:38;129.57;;;55.03;;
10825;SDS011;5466;55.898;14.094;2024-03-02T04:43:39;137.45;;;54.80;;
10825;SDS011;5466;55.898;14.094;2024-03-02T04:45:40;135.13;;;55.63;;
10825;SDS011;5466;55.898;14.094;2024-03-02T04:47:41;118.97;;;51.60;;
10825;SDS011;5466;55.898;14.094;2024-03-02T04:49:41;122.72;;;53.83;;
10825;SDS011;5466;55.898;14.094;2024-03-02T04:51:42;135.30;;;54.90;;
10825;SDS011;5466;55.898;14.094;2024-03-02T04:53:42;121.20;;;55.58;;
10825;SDS011;5466;55.898;14.094;2024-03-02T04:55:43;133.45;;;54.83;;
10825;SDS011;5466;55.898;14.094;2024-03-02T04:57:44;130.82;;;53.72;;
10825;SDS011;5466;55.898;14.094;2024-03-02T04:59:46;130.93;;;53.92;;
10825;SDS011;5466;55.898;14.094;2024-03-02T05:01:46;116.90;;;51.20;;
10825;SDS011;5466;55.898;14.094;2024-03-02T05:03:47;112.47;;;51.10;;
10825;SDS011;5466;55.898;14.094;2024-03-02T05:05:48;126.85;;;53.78;;
10825;SDS011;5466;55.898;14.094;2024-03-02T05:07:48;107.00;;;50.45;;
10825;SDS011;5466;55.898;14.094;2024-03-02T05:09:49;117.40;;;51.60;;
10825;SDS011;5466;55.898;14.094;2024-03-02T05:11:50;117.93;;;50.53;;
10825;SDS011;5466;55.898;14.094;2024-03-02T05:14:09;121.32;;;50.95;;
10825;SDS011;5466;55.898;14.094;2024-03-02T05:16:10;121.03;;;51.67;;
10825;SDS011;5466;55.898;14.094;2024-03-02T05:18:11;127.93;;;52.22;;
10825;SDS011;5466;55.898;14.094;2024-03-02T05:20:12;103.47;;;49.05;;
10825;SDS011;5466;55.898;14.094;2024-03-02T05:22:13;112.57;;;52.03;;
10825;SDS011;5466;55.898;14.094;2024-03-02T05:24:13;121.57;;;51.08;;
10825;SDS011;5466;55.898;14.094;2024-03-02T05:26:14;112.68;;;50.55;;
10825;SDS011;5466;55.898;14.094;2024-03-02T05:28:15;115.78;;;50.70;;
10825;SDS011;5466;55.898;14.094;2024-03-02T05:30:15;113.60;;;50.53;;
10825;SDS011;5466;55.898;14.094;2024-03-02T05:32:16;106.55;;;50.63;;
10825;SDS011;5466;55.898;14.094;2024-03-02T05:34:17;110.20;;;49.80;;
10825;SDS011;5466;55.898;14.094;2024-03-02T05:36:18;109.32;;;49.83;;
10825;SDS011;5466;55.898;14.094;2024-03-02T05:38:20;105.72;;;49.38;;
10825;SDS011;5466;55.898;14.094;2024-03-02T05:40:21;112.63;;;50.00;;
10825;SDS011;5466;55.898;14.094;2024-03-02T05:42:22;105.45;;;48.80;;
10825;SDS011;5466;55.898;14.094;2024-03-02T05:44:23;107.05;;;46.55;;
10825;SDS011;5466;55.898;14.094;2024-03-02T05:46:23;104.00;;;49.40;;
10825;SDS011;5466;55.898;14.094;2024-03-02T05:48:24;117.20;;;50.63;;
10825;SDS011;5466;55.898;14.094;2024-03-02T05:50:25;106.75;;;50.72;;
10825;SDS011;5466;55.898;14.094;2024-03-02T05:52:26;103.00;;;49.63;;
10825;SDS011;5466;55.898;14.094;2024-03-02T05:54:27;103.10;;;48.92;;
10825;SDS011;5466;55.898;14.094;2024-03-02T05:56:28;109.40;;;48.88;;
10825;SDS011;5466;55.898;14.094;2024-03-02T05:58:29;100.95;;;48.75;;
10825;SDS011;5466;55.898;14.094;2024-03-02T06:00:48;102.47;;;47.13;;
10825;SDS011;5466;55.898;14.094;2024-03-02T06:02:49;108.15;;;49.30;;
10825;SDS011;5466;55.898;14.094;2024-03-02T06:04:50;103.68;;;48.50;;
10825;SDS011;5466;55.898;14.094;2024-03-02T06:06:50;104.47;;;50.42;;
10825;SDS011;5466;55.898;14.094;2024-03-02T06:08:51;107.43;;;49.42;;
10825;SDS011;5466;55.898;14.094;2024-03-02T06:10:52;95.00;;;45.45;;
10825;SDS011;5466;55.898;14.094;2024-03-02T06:12:52;107.30;;;46.35;;
10825;SDS011;5466;55.898;14.094;2024-03-02T06:14:53;93.95;;;47.42;;
10825;SDS011;5466;55.898;14.094;2024-03-02T06:16:54;105.22;;;48.72;;
10825;SDS011;5466;55.898;14.094;2024-03-02T06:18:56;99.40;;;46.40;;
10825;SDS011;5466;55.898;14.094;2024-03-02T06:20:57;100.15;;;46.65;;
10825;SDS011;5466;55.898;14.094;2024-03-02T06:22:58;111.32;;;47.03;;
10825;SDS011;5466;55.898;14.094;2024-03-02T06:24:59;105.18;;;47.30;;
10825;SDS011;5466;55.898;14.094;2024-03-02T06:26:59;95.32;;;44.55;;
10825;SDS011;5466;55.898;14.094;2024-03-02T06:29:00;105.25;;;47.65;;
10825;SDS011;5466;55.898;14.094;2024-03-02T06:31:02;98.07;;;46.30;;
10825;SDS011;5466;55.898;14.094;2024-03-02T06:33:03;99.55;;;47.72;;
10825;SDS011;5466;55.898;14.094;2024-03-02T06:35:05;110.97;;;49.22;;
10825;SDS011;5466;55.898;14.094;2024-03-02T06:37:09;104.53;;;48.33;;
10825;SDS011;5466;55.898;14.094;2024-03-02T06:39:10;98.32;;;47.55;;
10825;SDS011;5466;55.898;14.094;2024-03-02T06:41:12;112.93;;;46.83;;
10825;SDS011;5466;55.898;14.094;2024-03-02T06:43:13;99.05;;;47.30;;
10825;SDS011;5466;55.898;14.094;2024-03-02T06:45:13;100.28;;;47.38;;
10825;SDS011;5466;55.898;14.094;2024-03-02T06:47:14;101.45;;;46.78;;
10825;SDS011;5466;55.898;14.094;2024-03-02T06:49:16;109.57;;;46.10;;
10825;SDS011;5466;55.898;14.094;2024-03-02T06:51:18;103.60;;;46.40;;
10825;SDS011;5466;55.898;14.094;2024-03-02T06:53:18;98.30;;;45.97;;
10825;SDS011;5466;55.898;14.094;2024-03-02T06:55:19;102.13;;;47.55;;
10825;SDS011;5466;55.898;14.094;2024-03-02T06:57:20;102.55;;;46.50;;
10825;SDS011;5466;55.898;14.094;2024-03-02T06:59:21;116.22;;;45.63;;
10825;SDS011;5466;55.898;14.094;2024-03-02T07:01:21;94.05;;;47.42;;
10825;SDS011;5466;55.898;14.094;2024-03-02T07:03:22;109.43;;;46.45;;
10825;SDS011;5466;55.898;14.094;2024-03-02T07:05:23;96.05;;;46.92;;
10825;SDS011;5466;55.898;14.094;2024-03-02T07:07:24;106.25;;;45.95;;
10825;SDS011;5466;55.898;14.094;2024-03-02T07:09:24;116.30;;;45.90;;
10825;SDS011;5466;55.898;14.094;2024-03-02T07:11:25;134.48;;;46.65;;
10825;SDS011;5466;55.898;14.094;2024-03-02T07:13:26;112.88;;;47.25;;
10825;SDS011;5466;55.898;14.094;2024-03-02T07:15:27;119.38;;;47.40;;
10825;SDS011;5466;55.898;14.094;2024-03-02T07:17:27;139.43;;;48.42;;
10825;SDS011;5466;55.898;14.094;2024-03-02T07:19:28;106.45;;;47.33;;
10825;SDS011;5466;55.898;14.094;2024-03-02T07:21:29;120.47;;;45.38;;
10825;SDS011;5466;55.898;14.094;2024-03-02T07:23:29;107.07;;;45.60;;
10825;SDS011;5466;55.898;14.094;2024-03-02T07:25:31;105.18;;;46.78;;
10825;SDS011;5466;55.898;14.094;2024-03-02T07:27:32;103.45;;;45.47;;
10825;SDS011;5466;55.898;14.094;2024-03-02T07:29:33;94.13;;;43.28;;
10825;SDS011;5466;55.898;14.094;2024-03-02T07:31:34;93.68;;;43.15;;
10825;SDS011;5466;55.898;14.094;2024-03-02T07:33:35;87.88;;;42.92;;
10825;SDS011;5466;55.898;14.094;2024-03-02T07:35:36;106.40;;;42.85;;
10825;SDS011;5466;55.898;14.094;2024-03-02T07:37:36;86.90;;;42.90;;
10825;SDS011;5466;55.898;14.094;2024-03-02T07:39:37;102.80;;;43.75;;
10825;SDS011;5466;55.898;14.094;2024-03-02T07:41:38;82.28;;;40.95;;
10825;SDS011;5466;55.898;14.094;2024-03-02T07:43:39;92.40;;;41.03;;
10825;SDS011;5466;55.898;14.094;2024-03-02T07:45:40;90.78;;;41.47;;
10825;SDS011;5466;55.898;14.094;2024-03-02T07:47:41;92.43;;;41.38;;
10825;SDS011;5466;55.898;14.094;2024-03-02T07:49:41;82.20;;;41.22;;
10825;SDS011;5466;55.898;14.094;2024-03-02T07:51:42;92.25;;;40.55;;
10825;SDS011;5466;55.898;14.094;2024-03-02T07:53:43;94.00;;;40.92;;
10825;SDS011;5466;55.898;14.094;2024-03-02T07:55:44;97.03;;;40.17;;
10825;SDS011;5466;55.898;14.094;2024-03-02T07:57:44;89.90;;;39.50;;
10825;SDS011;5466;55.898;14.094;2024-03-02T07:59:45;82.47;;;37.35;;
10825;SDS011;5466;55.898;14.094;2024-03-02T08:01:47;118.07;;;39.75;;
10825;SDS011;5466;55.898;14.094;2024-03-02T08:03:50;93.82;;;37.03;;
10825;SDS011;5466;55.898;14.094;2024-03-02T08:05:52;82.75;;;36.53;;
10825;SDS011;5466;55.898;14.094;2024-03-02T08:07:53;86.88;;;38.25;;
10825;SDS011;5466;55.898;14.094;2024-03-02T08:09:53;89.25;;;37.65;;
10825;SDS011;5466;55.898;14.094;2024-03-02T08:11:54;89.30;;;36.78;;
10825;SDS011;5466;55.898;14.094;2024-03-02T08:13:56;93.63;;;37.55;;
10825;SDS011;5466;55.898;14.094;2024-03-02T08:15:57;98.22;;;36.03;;
10825;SDS011;5466;55.898;14.094;2024-03-02T08:17:58;85.38;;;36.58;;
10825;SDS011;5466;55.898;14.094;2024-03-02T08:19:59;98.43;;;36.90;;
10825;SDS011;5466;55.898;14.094;2024-03-02T08:21:59;85.45;;;36.35;;
10825;SDS011;5466;55.898;14.094;2024-03-02T08:24:01;96.60;;;36.45;;
10825;SDS011;5466;55.898;14.094;2024-03-02T08:26:02;92.28;;;35.58;;
10825;SDS011;5466;55.898;14.094;2024-03-02T08:28:03;93.03;;;35.58;;
10825;SDS011;5466;55.898;14.094;2024-03-02T08:30:05;87.85;;;35.90;;
10825;SDS011;5466;55.898;14.094;2024-03-02T08:32:06;86.65;;;34.33;;
10825;SDS011;5466;55.898;14.094;2024-03-02T08:34:07;118.00;;;37.20;;
10825;SDS011;5466;55.898;14.094;2024-03-02T08:36:08;107.13;;;36.22;;
10825;SDS011;5466;55.898;14.094;2024-03-02T08:38:09;126.82;;;37.90;;
10825;SDS011;5466;55.898;14.094;2024-03-02T08:40:10;146.10;;;36.40;;
10825;SDS011;5466;55.898;14.094;2024-03-02T08:42:11;157.10;;;38.55;;
10825;SDS011;5466;55.898;14.094;2024-03-02T08:44:12;136.18;;;38.03;;
10825;SDS011;5466;55.898;14.094;2024-03-02T08:46:14;121.53;;;38.00;;
10825;SDS011;5466;55.898;14.094;2024-03-02T08:48:14;169.18;;;40.45;;
10825;SDS011;5466;55.898;14.094;2024-03-02T08:50:15;108.68;;;36.38;;
10825;SDS011;5466;55.898;14.094;2024-03-02T08:52:16;121.13;;;36.97;;
10825;SDS011;5466;55.898;14.094;2024-03-02T08:54:16;146.60;;;37.47;;
10825;SDS011;5466;55.898;14.094;2024-03-02T08:56:17;171.65;;;38.13;;
10825;SDS011;5466;55.898;14.094;2024-03-02T08:58:18;143.35;;;37.28;;
10825;SDS011;5466;55.898;14.094;2024-03-02T09:00:20;159.73;;;39.70;;
10825;SDS011;5466;55.898;14.094;2024-03-02T09:02:21;160.27;;;38.20;;
10825;SDS011;5466;55.898;14.094;2024-03-02T09:04:22;164.35;;;38.88;;
10825;SDS011;5466;55.898;14.094;2024-03-02T09:06:22;202.07;;;38.55;;
10825;SDS011;5466;55.898;14.094;2024-03-02T09:08:23;222.30;;;39.78;;
10825;SDS011;5466;55.898;14.094;2024-03-02T09:10:24;191.23;;;38.13;;
10825;SDS011;5466;55.898;14.094;2024-03-02T09:12:24;200.05;;;38.58;;
10825;SDS011;5466;55.898;14.094;2024-03-02T09:14:25;172.63;;;38.85;;
10825;SDS011;5466;55.898;14.094;2024-03-02T09:16:26;226.15;;;38.38;;
10825;SDS011;5466;55.898;14.094;2024-03-02T09:18:30;190.88;;;40.03;;
10825;SDS011;5466;55.898;14.094;2024-03-02T09:20:31;217.13;;;41.08;;
10825;SDS011;5466;55.898;14.094;2024-03-02T09:22:32;169.10;;;39.38;;
10825;SDS011;5466;55.898;14.094;2024-03-02T09:24:33;274.65;;;39.92;;
10825;SDS011;5466;55.898;14.094;2024-03-02T09:26:33;200.65;;;39.47;;
10825;SDS011;5466;55.898;14.094;2024-03-02T09:28:34;188.65;;;38.42;;
10825;SDS011;5466;55.898;14.094;2024-03-02T09:30:34;219.88;;;40.63;;
10825;SDS011;5466;55.898;14.094;2024-03-02T09:32:35;234.63;;;40.15;;
10825;SDS011;5466;55.898;14.094;2024-03-02T09:34:37;176.93;;;38.20;;
10825;SDS011;5466;55.898;14.094;2024-03-02T09:36:38;204.20;;;39.10;;
10825;SDS011;5466;55.898;14.094;2024-03-02T09:38:38;261.40;;;42.50;;
10825;SDS011;5466;55.898;14.094;2024-03-02T09:40:40;175.35;;;43.88;;
10825;SDS011;5466;55.898;14.094;2024-03-02T09:42:41;126.75;;;44.50;;
10825;SDS011;5466;55.898;14.094;2024-03-02T09:44:42;182.30;;;64.75;;
10825;SDS011;5466;55.898;14.094;2024-03-02T09:46:43;287.33;;;62.85;;
10825;SDS011;5466;55.898;14.094;2024-03-02T09:48:48;300.00;;;78.93;;
10825;SDS011;5466;55.898;14.094;2024-03-02T09:50:49;147.07;;;45.28;;
10825;SDS011;5466;55.898;14.094;2024-03-02T09:52:50;192.32;;;41.95;;
10825;SDS011;5466;55.898;14.094;2024-03-02T09:54:52;216.10;;;41.05;;
10825;SDS011;5466;55.898;14.094;2024-03-02T09:56:53;190.98;;;41.85;;
10825;SDS011;5466;55.898;14.094;2024-03-02T09:58:53;158.30;;;40.80;;
10825;SDS011;5466;55.898;14.094;2024-03-02T10:00:54;122.05;;;38.05;;
10825;SDS011;5466;55.898;14.094;2024-03-02T10:02:55;195.40;;;50.42;;
10825;SDS011;5466;55.898;14.094;2024-03-02T10:04:58;134.50;;;55.17;;
10825;SDS011;5466;55.898;14.094;2024-03-02T10:07:14;123.65;;;46.75;;
10825;SDS011;5466;55.898;14.094;2024-03-02T10:09:28;101.53;;;40.70;;
10825;SDS011;5466;55.898;14.094;2024-03-02T10:11:29;113.32;;;38.30;;
10825;SDS011;5466;55.898;14.094;2024-03-02T10:13:31;123.93;;;46.28;;
10825;SDS011;5466;55.898;14.094;2024-03-02T10:15:32;104.18;;;37.92;;
10825;SDS011;5466;55.898;14.094;2024-03-02T10:17:33;92.45;;;38.70;;
10825;SDS011;5466;55.898;14.094;2024-03-02T10:19:34;96.80;;;41.10;;
10825;SDS011;5466;55.898;14.094;2024-03-02T10:21:35;91.57;;;38.22;;
10825;SDS011;5466;55.898;14.094;2024-03-02T10:23:39;107.47;;;39.92;;
10825;SDS011;5466;55.898;14.094;2024-03-02T10:25:40;101.00;;;43.88;;
10825;SDS011;5466;55.898;14.094;2024-03-02T10:27:42;97.40;;;40.17;;
10825;SDS011;5466;55.898;14.094;2024-03-02T10:29:42;96.35;;;38.72;;
10825;SDS011;5466;55.898;14.094;2024-03-02T10:31:46;83.18;;;36.92;;
10825;SDS011;5466;55.898;14.094;2024-03-02T10:33:47;80.78;;;37.35;;
10825;SDS011;5466;55.898;14.094;2024-03-02T10:35:48;101.07;;;40.08;;
10825;SDS011;5466;55.898;14.094;2024-03-02T10:37:50;105.82;;;38.90;;
10825;SDS011;5466;55.898;14.094;2024-03-02T10:39:52;103.80;;;38.45;;
10825;SDS011;5466;55.898;14.094;2024-03-02T10:41:53;98.30;;;38.22;;
10825;SDS011;5466;55.898;14.094;2024-03-02T10:43:55;100.03;;;38.80;;
10825;SDS011;5466;55.898;14.094;2024-03-02T10:46:00;106.50;;;38.75;;
10825;SDS011;5466;55.898;14.094;2024-03-02T10:48:01;109.32;;;39.75;;
10825;SDS011;5466;55.898;14.094;2024-03-02T10:50:02;112.95;;;52.80;;
10825;SDS011;5466;55.898;14.094;2024-03-02T10:52:08;119.28;;;39.15;;
10825;SDS011;5466;55.898;14.094;2024-03-02T10:54:09;91.22;;;46.80;;
10825;SDS011;5466;55.898;14.094;2024-03-02T10:56:10;98.85;;;41.95;;
10825;SDS011;5466;55.898;14.094;2024-03-02T10:58:22;95.15;;;38.60;;
10825;SDS011;5466;55.898;14.094;2024-03-02T11:00:28;116.03;;;43.20;;
10825;SDS011;5466;55.898;14.094;2024-03-02T11:02:33;96.72;;;41.38;;
10825;SDS011;5466;55.898;14.094;2024-03-02T11:04:37;84.15;;;38.72;;
10825;SDS011;5466;55.898;14.094;2024-03-02T11:06:40;130.15;;;50.50;;
10825;SDS011;5466;55.898;14.094;2024-03-02T11:08:48;95.32;;;40.70;;
10825;SDS011;5466;55.898;14.094;2024-03-02T11:10:50;83.70;;;38.88;;
10825;SDS011;5466;55.898;14.094;2024-03-02T11:13:00;104.30;;;45.42;;
10825;SDS011;5466;55.898;14.094;2024-03-02T11:15:09;78.25;;;33.83;;
10825;SDS011;5466;55.898;14.094;2024-03-02T11:17:13;75.07;;;33.53;;
10825;SDS011;5466;55.898;14.094;2024-03-02T11:19:18;81.07;;;36.92;;
10825;SDS011;5466;55.898;14.094;2024-03-02T11:21:21;100.18;;;39.63;;
10825;SDS011;5466;55.898;14.094;2024-03-02T11:23:31;71.90;;;37.95;;
10825;SDS011;5466;55.898;14.094;2024-03-02T11:25:35;82.32;;;38.25;;
10825;SDS011;5466;55.898;14.094;2024-03-02T11:29:46;68.03;;;38.00;;
10825;SDS011;5466;55.898;14.094;2024-03-02T11:31:59;60.20;;;36.38;;
10825;SDS011;5466;55.898;14.094;2024-03-02T11:34:16;49.75;;;29.80;;
10825;SDS011;5466;55.898;14.094;2024-03-02T11:36:18;47.97;;;28.65;;
10825;SDS011;5466;55.898;14.094;2024-03-02T11:38:19;47.90;;;29.08;;
10825;SDS011;5466;55.898;14.094;2024-03-02T11:40:23;51.33;;;30.23;;
10825;SDS011;5466;55.898;14.094;2024-03-02T11:42:25;51.17;;;29.05;;
10825;SDS011;5466;55.898;14.094;2024-03-02T11:44:26;46.88;;;27.08;;
10825;SDS011;5466;55.898;14.094;2024-03-02T11:46:27;48.80;;;27.83;;
10825;SDS011;5466;55.898;14.094;2024-03-02T11:48:28;44.97;;;27.02;;